createdAt,value
2018-06-16T00:01:51.541Z,20.30
2018-06-16T00:04:19.566Z,20.30
2018-06-16T00:06:47.627Z,20.30
2018-06-16T00:09:15.728Z,20.30
2018-06-16T00:11:43.759Z,20.20
2018-06-16T00:14:11.801Z,20.20
2018-06-16T00:16:39.917Z,20.20
2018-06-16T00:19:08.018Z,20.20
2018-06-16T00:21:36.061Z,20.10
2018-06-16T00:24:04.065Z,20.10
2018-06-16T00:26:32.123Z,20.10
2018-06-16T00:29:00.129Z,20.10
2018-06-16T00:31:28.168Z,20.10
2018-06-16T00:33:56.197Z,20.10
2018-06-16T00:36:24.334Z,20.10
2018-06-16T00:38:52.377Z,20.10
2018-06-16T00:41:20.461Z,20.10
2018-06-16T00:43:48.510Z,20.20
2018-06-16T00:46:16.588Z,20.20
2018-06-16T00:48:44.646Z,20.20
2018-06-16T00:51:12.681Z,20.20
2018-06-16T00:53:40.922Z,20.10
2018-06-16T00:56:08.965Z,20.10
2018-06-16T00:58:36.998Z,20.10
2018-06-16T01:01:05.013Z,20.10
2018-06-16T01:03:33.056Z,20.10
2018-06-16T01:08:29.053Z,20.10
2018-06-16T01:10:57.047Z,20.00
2018-06-16T01:13:25.075Z,20.00
2018-06-16T01:15:53.132Z,20.00
2018-06-16T01:18:21.169Z,20.00
2018-06-16T01:20:49.205Z,19.90
2018-06-16T01:23:17.247Z,19.90
2018-06-16T01:25:45.300Z,19.90
2018-06-16T01:30:41.109Z,19.80
2018-06-16T01:33:09.122Z,19.70
2018-06-16T01:35:37.142Z,19.70
2018-06-16T01:38:05.298Z,19.70
2018-06-16T01:40:33.358Z,19.60
2018-06-16T01:43:01.426Z,19.60
2018-06-16T01:45:29.498Z,19.60
2018-06-16T01:47:57.527Z,19.50
2018-06-16T01:50:25.646Z,19.50
2018-06-16T01:52:54.018Z,19.40
2018-06-16T01:55:22.043Z,19.40
2018-06-16T01:57:50.074Z,19.30
2018-06-16T02:00:18.133Z,19.30
2018-06-16T02:02:46.152Z,19.20
2018-06-16T02:05:14.207Z,19.20
2018-06-16T02:07:42.229Z,19.20
2018-06-16T02:10:10.290Z,19.20
2018-06-16T02:15:06.090Z,19.10
2018-06-16T02:17:34.119Z,19.10
2018-06-16T02:20:02.197Z,19.10
2018-06-16T02:22:30.210Z,19.00
2018-06-16T02:24:58.272Z,19.00
2018-06-16T02:27:26.294Z,19.00
2018-06-16T02:29:54.374Z,19.00
2018-06-16T02:32:22.392Z,19.00
2018-06-16T02:34:50.533Z,19.00
2018-06-16T02:37:18.609Z,19.00
2018-06-16T02:39:46.694Z,19.00
2018-06-16T02:42:14.738Z,19.00
2018-06-16T02:44:42.812Z,19.00
2018-06-16T02:47:10.925Z,19.10
2018-06-16T02:49:38.962Z,19.10
2018-06-16T02:52:07.249Z,19.10
2018-06-16T02:54:35.314Z,19.10
2018-06-16T02:57:03.518Z,19.10
2018-06-16T02:59:31.565Z,19.10
2018-06-16T03:01:59.585Z,19.10
2018-06-16T03:04:27.701Z,19.10
2018-06-16T03:06:55.717Z,19.20
2018-06-16T03:09:23.756Z,19.20
2018-06-16T03:11:51.826Z,19.10
2018-06-16T03:14:19.910Z,19.20
2018-06-16T03:16:48.065Z,19.20
2018-06-16T03:19:16.148Z,19.20
2018-06-16T03:21:44.221Z,19.20
2018-06-16T03:24:12.291Z,19.20
2018-06-16T03:26:40.390Z,19.30
2018-06-16T03:29:08.429Z,19.30
2018-06-16T03:31:36.509Z,19.30
2018-06-16T03:34:04.687Z,19.40
2018-06-16T03:36:32.710Z,19.40
2018-06-16T03:39:00.738Z,19.40
2018-06-16T03:41:28.781Z,19.40
2018-06-16T03:46:24.630Z,19.50
2018-06-16T03:48:52.707Z,19.50
2018-06-16T03:51:20.761Z,19.60
2018-06-16T03:53:48.781Z,19.70
2018-06-16T03:56:16.821Z,19.70
2018-06-16T03:58:44.889Z,19.80
2018-06-16T04:01:12.973Z,19.80
2018-06-16T04:03:40.991Z,19.90
2018-06-16T04:06:09.021Z,20.00
2018-06-16T04:08:37.091Z,20.00
2018-06-16T04:11:05.145Z,20.00
2018-06-16T04:13:33.225Z,20.00
2018-06-16T04:16:01.293Z,20.10
2018-06-16T04:18:29.366Z,20.10
2018-06-16T04:20:57.442Z,20.10
2018-06-16T04:23:25.473Z,20.10
2018-06-16T04:25:53.496Z,20.20
2018-06-16T04:28:21.530Z,20.20
2018-06-16T04:30:49.558Z,20.20
2018-06-16T04:33:17.688Z,20.30
2018-06-16T04:35:45.721Z,20.30
2018-06-16T04:38:13.842Z,20.40
2018-06-16T04:40:41.918Z,20.40
2018-06-16T04:43:09.981Z,20.40
2018-06-16T04:45:38.113Z,20.50
2018-06-16T04:48:06.165Z,20.40
2018-06-16T04:50:34.309Z,20.50
2018-06-16T04:53:02.386Z,20.50
2018-06-16T04:55:30.454Z,20.50
2018-06-16T04:57:58.524Z,20.40
2018-06-16T05:00:26.565Z,20.40
2018-06-16T05:02:54.669Z,20.40
2018-06-16T05:05:22.785Z,20.40
2018-06-16T05:07:50.833Z,20.30
2018-06-16T05:10:18.852Z,20.50
2018-06-16T05:12:46.994Z,20.60
2018-06-16T05:15:15.050Z,20.70
2018-06-16T05:17:43.091Z,20.70
2018-06-16T05:20:11.115Z,20.80
2018-06-16T05:22:39.258Z,20.90
2018-06-16T05:25:07.281Z,20.90
2018-06-16T05:27:35.336Z,21.00
2018-06-16T05:30:03.349Z,21.00
2018-06-16T05:32:31.387Z,21.10
2018-06-16T05:34:59.414Z,21.10
2018-06-16T05:37:27.477Z,21.10
2018-06-16T05:39:55.668Z,21.20
2018-06-16T05:42:23.722Z,21.30
2018-06-16T05:44:51.741Z,21.40
2018-06-16T05:47:19.782Z,21.50
2018-06-16T05:49:47.813Z,21.60
2018-06-16T05:52:16.090Z,21.70
2018-06-16T05:54:44.494Z,21.90
2018-06-16T05:57:12.731Z,21.80
2018-06-16T05:59:41.301Z,22.00
2018-06-16T06:02:09.717Z,22.00
2018-06-16T06:04:37.939Z,22.10
2018-06-16T06:07:05.986Z,22.20
2018-06-16T06:09:34.014Z,22.20
2018-06-16T06:12:02.125Z,22.20
2018-06-16T06:14:30.439Z,22.20
2018-06-16T06:16:58.424Z,22.30
2018-06-16T06:19:26.481Z,22.30
2018-06-16T06:21:54.520Z,22.40
2018-06-16T06:24:22.593Z,22.50
2018-06-16T06:26:50.698Z,22.50
2018-06-16T06:29:18.953Z,22.50
2018-06-16T06:31:47.460Z,22.60
2018-06-16T06:34:15.478Z,22.40
2018-06-16T06:36:44.211Z,22.50
2018-06-16T06:39:12.277Z,22.40
2018-06-16T06:41:41.283Z,22.50
2018-06-16T06:44:10.217Z,22.60
2018-06-16T06:46:38.778Z,22.50
2018-06-16T06:49:07.091Z,22.60
2018-06-16T06:51:35.142Z,22.60
2018-06-16T06:54:03.179Z,22.70
2018-06-16T06:56:31.149Z,22.60
2018-06-16T06:58:59.197Z,22.60
2018-06-16T07:01:27.226Z,22.70
2018-06-16T07:03:55.425Z,22.80
2018-06-16T07:06:23.382Z,22.90
2018-06-16T07:08:51.497Z,23.00
2018-06-16T07:11:19.553Z,23.10
2018-06-16T07:13:47.638Z,23.30
2018-06-16T07:16:15.662Z,23.40
2018-06-16T07:18:43.986Z,23.40
2018-06-16T07:21:12.054Z,23.40
2018-06-16T07:23:40.165Z,23.30
2018-06-16T07:26:08.181Z,23.40
2018-06-16T07:28:36.219Z,23.50
2018-06-16T07:31:04.237Z,23.70
2018-06-16T07:33:32.313Z,23.70
2018-06-16T07:36:00.335Z,23.90
2018-06-16T07:38:28.370Z,24.00
2018-06-16T07:40:56.386Z,24.00
2018-06-16T07:45:52.169Z,24.20
2018-06-16T07:48:20.197Z,24.10
2018-06-16T07:50:48.332Z,24.20
2018-06-16T07:53:16.357Z,24.20
2018-06-16T07:55:44.381Z,24.20
2018-06-16T07:58:12.434Z,24.40
2018-06-16T08:00:40.450Z,24.50
2018-06-16T08:03:08.563Z,24.40
2018-06-16T08:05:36.617Z,24.40
2018-06-16T08:08:04.629Z,24.60
2018-06-16T08:10:32.954Z,24.60
2018-06-16T08:13:01.053Z,24.40
2018-06-16T08:15:29.159Z,24.40
2018-06-16T08:17:57.222Z,24.30
2018-06-16T08:20:25.278Z,24.50
2018-06-16T08:22:53.303Z,24.70
2018-06-16T08:27:49.050Z,24.70
2018-06-16T08:30:17.076Z,24.60
2018-06-16T08:32:45.107Z,24.80
2018-06-16T08:35:13.203Z,24.80
2018-06-16T08:37:41.263Z,25.00
2018-06-16T08:40:09.342Z,25.30
2018-06-16T08:42:37.411Z,25.40
2018-06-16T08:45:05.445Z,25.50
2018-06-16T08:47:33.456Z,25.50
2018-06-16T08:50:01.506Z,25.50
2018-06-16T08:52:29.697Z,25.50
2018-06-16T08:54:57.773Z,25.70
2018-06-16T08:57:25.841Z,25.40
2018-06-16T08:59:53.914Z,25.60
2018-06-16T09:02:21.988Z,25.80
2018-06-16T09:04:50.165Z,25.80
2018-06-16T09:07:18.181Z,25.70
2018-06-16T09:09:46.210Z,25.70
2018-06-16T09:12:14.237Z,25.70
2018-06-16T09:14:42.270Z,26.00
2018-06-16T09:17:10.298Z,25.90
2018-06-16T09:19:38.338Z,25.80
2018-06-16T09:22:06.370Z,26.10
2018-06-16T09:24:34.409Z,26.10
2018-06-16T09:27:02.432Z,26.30
2018-06-16T09:29:30.604Z,26.20
2018-06-16T09:31:58.611Z,26.20
2018-06-16T09:36:54.383Z,26.40
2018-06-16T09:39:22.437Z,26.70
2018-06-16T09:41:50.461Z,26.70
2018-06-16T09:44:18.500Z,27.00
2018-06-16T09:46:46.642Z,26.90
2018-06-16T09:49:14.667Z,27.10
2018-06-16T09:51:42.726Z,27.10
2018-06-16T09:54:10.763Z,26.90
2018-06-16T09:56:38.880Z,27.00
2018-06-16T09:59:06.924Z,26.90
2018-06-16T10:01:35.140Z,26.90
2018-06-16T10:04:03.185Z,26.90
2018-06-16T10:06:31.260Z,26.70
2018-06-16T10:08:59.348Z,26.40
2018-06-16T10:11:27.386Z,26.60
2018-06-16T10:13:55.486Z,26.70
2018-06-16T10:16:23.555Z,27.00
2018-06-16T10:18:51.581Z,27.20
2018-06-16T10:21:19.746Z,27.00
2018-06-16T10:23:47.762Z,27.00
2018-06-16T10:26:15.806Z,27.20
2018-06-16T10:28:43.850Z,27.40
2018-06-16T10:31:11.899Z,27.60
2018-06-16T10:33:39.957Z,27.70
2018-06-16T10:36:08.021Z,27.90
2018-06-16T10:38:36.033Z,28.00
2018-06-16T10:41:04.062Z,28.20
2018-06-16T10:43:32.081Z,28.10
2018-06-16T10:46:00.205Z,28.10
2018-06-16T10:48:28.213Z,28.20
2018-06-16T10:50:56.367Z,28.50
2018-06-16T10:53:24.403Z,28.40
2018-06-16T10:55:52.734Z,28.20
2018-06-16T10:58:20.749Z,28.30
2018-06-16T11:00:48.777Z,28.60
2018-06-16T11:03:16.807Z,28.80
2018-06-16T11:05:44.829Z,28.70
2018-06-16T11:08:12.962Z,28.90
2018-06-16T11:10:40.974Z,29.30
2018-06-16T11:13:09.106Z,29.50
2018-06-16T11:15:37.145Z,29.50
2018-06-16T11:18:05.254Z,29.60
2018-06-16T11:20:33.335Z,29.70
2018-06-16T11:23:01.415Z,29.90
2018-06-16T11:25:29.473Z,30.10
2018-06-16T11:27:57.545Z,30.20
2018-06-16T11:30:25.576Z,30.30
2018-06-16T11:32:53.695Z,30.40
2018-06-16T11:35:21.698Z,30.40
2018-06-16T11:37:49.837Z,30.20
2018-06-16T11:40:17.859Z,30.30
2018-06-16T11:42:45.897Z,30.20
2018-06-16T11:45:13.924Z,30.30
2018-06-16T11:47:42.026Z,30.40
2018-06-16T11:50:10.102Z,30.10
2018-06-16T11:52:38.280Z,30.20
2018-06-16T11:55:06.311Z,30.30
2018-06-16T11:57:34.363Z,30.40
2018-06-16T12:00:02.351Z,29.90
2018-06-16T12:02:30.450Z,30.00
2018-06-16T12:04:58.526Z,30.00
2018-06-16T12:07:26.801Z,30.00
2018-06-16T12:09:54.839Z,29.60
2018-06-16T12:12:22.882Z,29.70
2018-06-16T12:14:50.911Z,29.90
2018-06-16T12:17:19.025Z,30.00
2018-06-16T12:19:47.027Z,30.00
2018-06-16T12:22:15.235Z,30.00
2018-06-16T12:24:43.237Z,29.80
2018-06-16T12:27:11.277Z,29.70
2018-06-16T12:29:39.362Z,29.70
2018-06-16T12:32:07.430Z,29.70
2018-06-16T12:34:35.705Z,29.30
2018-06-16T12:37:03.779Z,29.40
2018-06-16T12:39:31.840Z,29.30
2018-06-16T12:41:59.901Z,29.20
2018-06-16T12:44:28.127Z,28.80
2018-06-16T12:46:56.300Z,28.70
2018-06-16T12:49:24.447Z,28.40
2018-06-16T12:51:52.501Z,28.30
2018-06-16T12:54:20.619Z,28.30
2018-06-16T12:56:48.674Z,28.10
2018-06-16T12:59:16.717Z,28.10
2018-06-16T13:01:44.806Z,27.90
2018-06-16T13:04:12.846Z,27.90
2018-06-16T13:06:40.887Z,27.90
2018-06-16T13:09:09.023Z,27.70
2018-06-16T13:11:37.077Z,27.40
2018-06-16T13:14:05.109Z,27.50
2018-06-16T13:16:33.238Z,27.70
2018-06-16T13:19:01.617Z,27.80
2018-06-16T13:21:29.697Z,27.90
2018-06-16T13:23:58.073Z,28.30
2018-06-16T13:26:26.109Z,29.60
2018-06-16T13:28:54.763Z,30.10
2018-06-16T13:31:23.042Z,30.30
2018-06-16T13:33:51.113Z,30.70
2018-06-16T13:36:19.873Z,31.10
2018-06-16T13:38:48.043Z,31.30
2018-06-16T13:41:16.093Z,31.20
2018-06-16T13:43:44.193Z,31.00
2018-06-16T13:46:12.226Z,30.50
2018-06-16T13:48:40.251Z,30.50
2018-06-16T13:51:08.286Z,30.20
2018-06-16T13:53:36.583Z,29.90
2018-06-16T13:56:04.606Z,30.30
2018-06-16T13:58:32.652Z,31.60
2018-06-16T14:01:00.710Z,33.60
2018-06-16T14:03:28.771Z,34.70
2018-06-16T14:05:56.837Z,35.40
2018-06-16T14:08:25.072Z,35.40
2018-06-16T14:13:21.056Z,33.90
2018-06-16T14:15:49.114Z,33.50
2018-06-16T14:18:17.182Z,33.10
2018-06-16T14:20:45.216Z,33.40
2018-06-16T14:23:13.550Z,33.50
2018-06-16T14:25:41.584Z,34.20
2018-06-16T14:30:37.359Z,34.80
2018-06-16T14:33:05.450Z,34.90
2018-06-16T14:35:33.611Z,35.50
2018-06-16T14:38:01.909Z,35.70
2018-06-16T14:40:29.956Z,35.30
2018-06-16T14:42:57.981Z,34.80
2018-06-16T14:45:26.012Z,34.00
2018-06-16T14:47:54.045Z,33.60
2018-06-16T14:50:22.067Z,33.20
2018-06-16T14:52:50.078Z,32.80
2018-06-16T14:57:46.315Z,32.00
2018-06-16T15:00:14.353Z,31.50
2018-06-16T15:02:42.401Z,31.20
2018-06-16T15:05:10.454Z,31.20
2018-06-16T15:07:38.577Z,31.00
2018-06-16T15:10:06.752Z,31.10
2018-06-16T15:12:34.765Z,30.90
2018-06-16T15:15:02.793Z,30.90
2018-06-16T15:17:30.945Z,30.80
2018-06-16T15:19:59.020Z,30.50
2018-06-16T15:22:27.082Z,30.10
2018-06-16T15:24:55.153Z,30.20
2018-06-16T15:27:23.237Z,30.20
2018-06-16T15:29:51.273Z,30.30
2018-06-16T15:32:19.374Z,30.80
2018-06-16T15:34:47.450Z,31.30
2018-06-16T15:37:15.481Z,31.90
2018-06-16T15:42:11.528Z,33.50
2018-06-16T15:44:39.625Z,34.00
2018-06-16T15:47:07.665Z,34.40
2018-06-16T15:49:35.781Z,35.00
2018-06-16T15:52:03.812Z,35.00
2018-06-16T15:54:31.880Z,34.90
2018-06-16T15:56:59.893Z,34.40
2018-06-16T15:59:27.965Z,33.80
2018-06-16T16:01:55.977Z,33.50
2018-06-16T16:04:24.101Z,32.80
2018-06-16T16:06:52.176Z,32.70
2018-06-16T16:09:20.255Z,33.10
2018-06-16T16:11:48.330Z,33.80
2018-06-16T16:14:16.340Z,33.80
2018-06-16T16:16:44.401Z,33.30
2018-06-16T16:19:12.469Z,32.80
2018-06-16T16:21:40.618Z,32.20
2018-06-16T16:24:09.093Z,31.70
2018-06-16T16:26:37.166Z,31.30
2018-06-16T16:29:05.279Z,31.10
2018-06-16T16:31:33.293Z,30.70
2018-06-16T16:34:01.397Z,30.40
2018-06-16T16:36:29.492Z,30.30
2018-06-16T16:39:04.806Z,30.20
2018-06-16T16:41:32.870Z,30.30
2018-06-16T16:44:00.943Z,30.50
2018-06-16T16:46:29.050Z,30.70
2018-06-16T16:48:57.041Z,30.70
2018-06-16T16:51:25.162Z,30.60
2018-06-16T16:53:53.210Z,30.30
2018-06-16T16:56:21.310Z,30.40
2018-06-16T16:58:49.359Z,30.60
2018-06-16T17:01:17.437Z,30.70
2018-06-16T17:03:45.460Z,31.00
2018-06-16T17:06:13.594Z,31.10
2018-06-16T17:08:41.912Z,30.80
2018-06-16T17:11:09.945Z,30.70
2018-06-16T17:13:37.981Z,30.50
2018-06-16T17:16:06.023Z,30.60
2018-06-16T17:18:34.048Z,30.70
2018-06-16T17:21:02.138Z,30.70
2018-06-16T17:23:30.158Z,30.40
2018-06-16T17:25:58.185Z,30.40
2018-06-16T17:28:26.981Z,30.30
2018-06-16T17:30:55.892Z,30.10
2018-06-16T17:33:23.936Z,29.90
2018-06-16T17:35:52.033Z,29.70
2018-06-16T17:38:20.104Z,29.50
2018-06-16T17:40:48.118Z,29.40
2018-06-16T17:43:16.249Z,29.30
2018-06-16T17:45:44.593Z,29.10
2018-06-16T17:48:12.666Z,29.10
2018-06-16T17:50:40.737Z,28.70
2018-06-16T17:53:09.158Z,28.40
2018-06-16T17:55:37.325Z,28.20
2018-06-16T17:58:05.913Z,28.00
2018-06-16T18:00:33.958Z,27.80
2018-06-16T18:03:02.036Z,27.60
2018-06-16T18:05:30.054Z,27.50
2018-06-16T18:07:58.083Z,27.30
2018-06-16T18:10:26.145Z,27.20
2018-06-16T18:12:54.173Z,27.00
2018-06-16T18:15:22.185Z,26.90
2018-06-16T18:17:50.319Z,26.80
2018-06-16T18:20:18.363Z,26.60
2018-06-16T18:22:46.409Z,26.50
2018-06-16T18:25:14.470Z,26.30
2018-06-16T18:27:42.553Z,26.30
2018-06-16T18:30:10.626Z,26.30
2018-06-16T18:32:38.691Z,26.20
2018-06-16T18:35:06.736Z,26.10
2018-06-16T18:37:34.950Z,26.10
2018-06-16T18:40:03.009Z,26.00
2018-06-16T18:42:31.038Z,26.00
2018-06-16T18:44:59.049Z,26.00
2018-06-16T18:47:27.125Z,25.90
2018-06-16T18:49:55.247Z,25.90
2018-06-16T18:52:23.403Z,25.80
2018-06-16T18:54:51.414Z,25.80
2018-06-16T18:57:19.517Z,25.80
2018-06-16T18:59:47.590Z,25.80
2018-06-16T19:02:15.657Z,25.80
2018-06-16T19:04:43.674Z,25.80
2018-06-16T19:07:11.710Z,25.70
2018-06-16T19:09:39.729Z,25.70
2018-06-16T19:12:07.753Z,25.70
2018-06-16T19:14:35.807Z,25.60
2018-06-16T19:17:03.881Z,25.60
2018-06-16T19:19:31.964Z,25.60
2018-06-16T19:22:00.040Z,25.50
2018-06-16T19:24:28.109Z,25.40
2018-06-16T19:26:56.182Z,25.40
2018-06-16T19:29:24.281Z,25.40
2018-06-16T19:31:52.329Z,25.40
2018-06-16T19:34:20.397Z,25.40
2018-06-16T19:36:48.442Z,25.30
2018-06-16T19:39:16.542Z,25.30
2018-06-16T19:41:44.578Z,25.30
2018-06-16T19:44:12.718Z,25.20
2018-06-16T19:46:40.723Z,25.20
2018-06-16T19:49:08.861Z,25.10
2018-06-16T19:51:36.877Z,25.10
2018-06-16T19:54:05.277Z,25.10
2018-06-16T19:56:33.335Z,25.10
2018-06-16T19:59:02.166Z,25.00
2018-06-16T20:01:30.185Z,25.00
2018-06-16T20:03:58.281Z,24.90
2018-06-16T20:06:26.298Z,24.90
2018-06-16T20:08:54.444Z,24.90
2018-06-16T20:11:22.522Z,24.90
2018-06-16T20:13:50.586Z,24.90
2018-06-16T20:16:18.857Z,24.80
2018-06-16T20:18:47.061Z,24.80
2018-06-16T20:21:15.143Z,24.80
2018-06-16T20:23:43.252Z,24.80
2018-06-16T20:26:11.696Z,24.70
2018-06-16T20:28:39.745Z,24.60
2018-06-16T20:31:08.036Z,24.50
2018-06-16T20:33:36.041Z,24.50
2018-06-16T20:36:04.158Z,24.40
2018-06-16T20:38:32.481Z,24.40
2018-06-16T20:41:01.039Z,24.40
2018-06-16T20:43:29.097Z,24.30
2018-06-16T20:45:57.577Z,24.30
2018-06-16T20:48:25.668Z,24.20
2018-06-16T20:50:53.715Z,24.20
2018-06-16T20:53:21.809Z,24.10
2018-06-16T20:55:49.984Z,24.00
2018-06-16T20:58:18.683Z,23.90
2018-06-16T21:00:47.143Z,23.80
2018-06-16T21:03:15.725Z,23.80
2018-06-16T21:05:43.765Z,23.70
2018-06-16T21:08:11.993Z,23.70
2018-06-16T21:10:40.042Z,23.60
2018-06-16T21:13:08.220Z,23.60
2018-06-16T21:15:36.284Z,23.60
2018-06-16T21:18:04.358Z,23.60
2018-06-16T21:20:32.423Z,23.60
2018-06-16T21:23:00.437Z,23.50
2018-06-16T21:25:28.578Z,23.50
2018-06-16T21:27:58.615Z,23.40
2018-06-16T21:30:26.867Z,23.30
2018-06-16T21:32:54.886Z,23.30
2018-06-16T21:35:23.146Z,23.20
2018-06-16T21:37:51.297Z,23.20
2018-06-16T21:40:19.365Z,23.20
2018-06-16T21:42:47.398Z,23.20
2018-06-16T21:45:15.507Z,23.10
2018-06-16T21:47:43.557Z,23.10
2018-06-16T21:50:11.617Z,23.00
2018-06-16T21:52:39.718Z,23.00
2018-06-16T21:55:07.789Z,23.00
2018-06-16T21:57:35.857Z,22.90
2018-06-16T22:00:06.025Z,22.90
2018-06-16T22:02:34.039Z,22.80
2018-06-16T22:05:02.079Z,22.80
2018-06-16T22:07:30.104Z,22.80
2018-06-16T22:09:58.131Z,22.80
2018-06-16T22:12:26.134Z,22.70
2018-06-16T22:14:54.231Z,22.70
2018-06-16T22:17:22.280Z,22.70
2018-06-16T22:19:50.353Z,22.60
2018-06-16T22:22:18.389Z,22.60
2018-06-16T22:24:46.433Z,22.60
2018-06-16T22:27:14.452Z,22.60
2018-06-16T22:29:42.500Z,22.60
2018-06-16T22:32:10.519Z,22.60
2018-06-16T22:34:38.555Z,22.60
2018-06-16T22:37:06.562Z,22.60
2018-06-16T22:39:34.593Z,22.60
2018-06-16T22:44:30.574Z,22.60
2018-06-16T22:46:58.586Z,22.60
2018-06-16T22:49:26.622Z,22.60
2018-06-16T22:51:54.694Z,22.60
2018-06-16T22:54:22.763Z,22.60
2018-06-16T22:56:50.791Z,22.60
2018-06-16T22:59:18.809Z,22.60
2018-06-16T23:01:46.834Z,22.60
2018-06-16T23:04:14.949Z,22.60
2018-06-16T23:06:42.965Z,22.60
2018-06-16T23:09:12.149Z,22.60
2018-06-16T23:11:40.217Z,22.50
2018-06-16T23:14:08.810Z,22.50
2018-06-16T23:16:37.064Z,22.50
2018-06-16T23:19:05.120Z,22.50
2018-06-16T23:21:33.129Z,22.50
2018-06-16T23:24:01.165Z,22.50
2018-06-16T23:26:29.198Z,22.50
2018-06-16T23:28:57.314Z,22.50
2018-06-16T23:31:25.354Z,22.50
2018-06-16T23:33:53.458Z,22.50
2018-06-16T23:36:21.535Z,22.40
2018-06-16T23:38:49.567Z,22.50
2018-06-16T23:41:17.669Z,22.40
2018-06-16T23:43:45.749Z,22.40
2018-06-16T23:46:13.797Z,22.40
2018-06-16T23:48:41.818Z,22.40
2018-06-16T23:51:09.852Z,22.30
2018-06-16T23:53:37.960Z,22.30
2018-06-16T23:56:06.317Z,22.30
2018-06-16T23:58:34.381Z,22.30
